Terminal Aerodrome Forecast
Issued by NWS

Home | Current Version | Previous Version | Text Only | Print | Product List | Glossary On
Versions: 1 2 3 4 5 6 7 8 9 10 11 12 13 14 15 16 17 18 19
000
FTUS43 KMQT 211120
TAFIWD
TAF
KIWD 211120Z 2112/2212 27011G17KT 2SM -SHSN OVC007
     FM211500 29014G22KT 3SM -SHSN OVC010
     FM220100 30010KT 3SM -SHSN OVC015
      AMD LTD TO CLD VIS AND WIND=

USA.gov is the U.S. government's official web portal to all federal, state and local government web resources and services.